Saint Clair, Minnesota
Current Conditions -  °F | °C
As of 10:35 PM on Thursday 18 Dec 2014 (Local Time) from KMKT Reporting Station
Overcast Overcast  
Wind Chill: 13°   Ceiling: 7000
Heat Index: 21°   Visibility: 7mi
Dew Point: 16°   Wind: 7mph
Humidity: 80%   Direction: 140°SE
Pressure: 30.24"   Gusts: NA
Location:  44.08°N, 93.86°W
Report Text: KMKT 190435Z AUTO 14006KT 7SM OVC070 M06/M09 A3024 RMK AO1
Loading
Personal Weather Stations






























Interactive Weather Map New forecast layout! Learn more

10-Day Weather Forecast

Advertisements
Track Severe Weather on mobile